Time;durP1;ratioP1;P1;durP2;ratioP2;P2;SDS_P1;SDS_P2;PMS_P1;PMS_P2;Temp;Humidity;BMP_temperature;BMP_pressure;BME280_temperature;BME280_humidity;BME280_pressure;Samples;Min_cycle;Max_cycle;Signal;HPM_P1;HPM_P2
2024/03/14 00:01:45;;;;;;;0.15;0.15;;;17.30;70.00;;;;;;4987305;28;20050;-79
2024/03/14 00:04:14;;;;;;;0.32;0.30;;;17.30;70.10;;;;;;4987054;28;20045;-79
2024/03/14 00:06:41;;;;;;;0.40;0.40;;;17.30;70.10;;;;;;4955109;28;20053;-79
2024/03/14 00:09:08;;;;;;;0.40;0.40;;;17.30;70.10;;;;;;4983240;28;20046;-79
2024/03/14 00:11:34;;;;;;;0.45;0.32;;;17.30;70.10;;;;;;4987454;28;20093;-80
2024/03/14 00:14:00;;;;;;;0.35;0.30;;;17.30;70.10;;;;;;4968997;28;20047;-79
2024/03/14 00:16:26;;;;;;;0.20;0.20;;;17.30;70.10;;;;;;4986022;28;20395;-79
2024/03/14 00:18:52;;;;;;;0.43;0.30;;;17.30;70.20;;;;;;4970632;28;20451;-79
2024/03/14 00:21:20;;;;;;;0.57;0.40;;;17.20;70.10;;;;;;4984333;28;20523;-80
2024/03/14 00:23:46;;;;;;;0.32;0.30;;;17.30;70.10;;;;;;4985931;28;20099;-80
2024/03/14 00:26:13;;;;;;;0.43;0.43;;;17.30;70.20;;;;;;4968504;28;20042;-80
2024/03/14 00:28:39;;;;;;;0.30;0.30;;;17.20;70.00;;;;;;4986732;28;20062;-80
2024/03/14 00:31:04;;;;;;;0.30;0.30;;;17.30;70.10;;;;;;4985645;28;20408;-80
2024/03/14 00:33:33;;;;;;;0.50;0.38;;;17.30;70.10;;;;;;4984359;28;20078;-80
2024/03/14 00:35:59;;;;;;;0.32;0.32;;;17.20;70.00;;;;;;4986041;28;20048;-79
2024/03/14 00:38:25;;;;;;;0.30;0.30;;;17.20;70.00;;;;;;4968906;28;20046;-79
2024/03/14 00:40:50;;;;;;;0.30;0.30;;;17.20;70.10;;;;;;4985922;28;20038;-80
2024/03/14 00:43:17;;;;;;;0.40;0.30;;;17.20;70.10;;;;;;4985606;28;20053;-80
2024/03/14 00:45:42;;;;;;;0.70;0.45;;;17.20;70.10;;;;;;4985912;28;20045;-80
2024/03/14 00:48:08;;;;;;;0.60;0.50;;;17.20;70.10;;;;;;4969288;28;20046;-79
2024/03/14 00:50:35;;;;;;;0.30;0.30;;;17.20;70.10;;;;;;4968858;28;20050;-80
2024/03/14 00:53:04;;;;;;;0.30;0.30;;;17.20;70.10;;;;;;4984199;28;20042;-80
2024/03/14 00:55:30;;;;;;;0.30;0.30;;;17.20;70.00;;;;;;4985448;28;20154;-79
2024/03/14 00:57:56;;;;;;;0.40;0.38;;;17.20;70.10;;;;;;4985143;28;20501;-80
2024/03/14 01:00:23;;;;;;;0.32;0.32;;;17.20;70.10;;;;;;4983965;28;20046;-79
2024/03/14 01:02:53;;;;;;;0.28;0.28;;;17.20;70.10;;;;;;4970197;28;20062;-77
2024/03/14 01:05:20;;;;;;;0.38;0.30;;;17.20;70.00;;;;;;5000957;28;20073;-77
2024/03/14 01:07:46;;;;;;;0.20;0.20;;;17.20;70.00;;;;;;4967826;28;20129;-77
2024/03/14 01:10:13;;;;;;;0.40;0.40;;;17.20;70.10;;;;;;4967892;28;20069;-77
2024/03/14 01:12:39;;;;;;;0.30;0.20;;;17.20;70.10;;;;;;4985033;28;20122;-77
2024/03/14 01:15:08;;;;;;;0.30;0.30;;;17.20;70.10;;;;;;4985900;28;20141;-77
2024/03/14 01:17:38;;;;;;;0.47;0.47;;;17.20;70.10;;;;;;4970933;28;20062;-77
2024/03/14 01:20:09;;;;;;;0.40;0.40;;;17.20;70.10;;;;;;4984221;28;20064;-76
2024/03/14 01:22:36;;;;;;;0.30;0.30;;;17.20;70.10;;;;;;4969524;28;20074;-77
2024/03/14 01:25:02;;;;;;;0.47;0.47;;;17.10;70.00;;;;;;4984969;28;20046;-76
2024/03/14 01:27:27;;;;;;;0.40;0.30;;;17.10;70.00;;;;;;4984014;28;20403;-76
2024/03/14 01:29:53;;;;;;;0.30;0.30;;;17.20;70.00;;;;;;4968231;28;20050;-76
2024/03/14 01:32:19;;;;;;;0.30;0.30;;;17.20;70.80;;;;;;4981650;28;20037;-76
2024/03/14 01:34:44;;;;;;;0.57;0.50;;;17.20;70.00;;;;;;4965960;28;20128;-76
2024/03/14 01:37:13;;;;;;;0.45;0.30;;;17.10;70.00;;;;;;4981762;28;20508;-78
2024/03/14 01:39:39;;;;;;;0.20;0.20;;;17.10;70.00;;;;;;4968449;28;20096;-77
2024/03/14 01:42:05;;;;;;;0.40;0.40;;;17.10;70.00;;;;;;4985457;28;20462;-77
2024/03/14 01:44:42;;;;;;;0.40;0.40;;;17.10;70.00;;;;;;4978693;28;20094;-77
2024/03/14 01:47:08;;;;;;;0.30;0.30;;;17.10;70.00;;;;;;4985246;28;20454;-77
2024/03/14 01:49:34;;;;;;;0.45;0.45;;;17.10;69.90;;;;;;4979180;28;20054;-78
2024/03/14 01:51:59;;;;;;;0.40;0.40;;;17.10;70.00;;;;;;4983190;28;20615;-78
2024/03/14 01:54:25;;;;;;;0.38;0.28;;;17.10;70.00;;;;;;4981032;28;20598;-77
2024/03/14 01:56:57;;;;;;;0.40;0.40;;;17.10;70.00;;;;;;4983376;28;20065;-77
2024/03/14 01:59:27;;;;;;;0.47;0.47;;;17.10;70.10;;;;;;4997854;28;21185;-77
2024/03/14 02:01:56;;;;;;;0.52;0.32;;;17.10;70.00;;;;;;4967879;28;20042;-77
2024/03/14 02:04:27;;;;;;;1.58;0.43;;;17.10;70.00;;;;;;4967194;28;20108;-77
2024/03/14 02:06:58;;;;;;;0.55;0.55;;;17.10;70.00;;;;;;4966238;28;20046;-77
2024/03/14 02:09:26;;;;;;;0.30;0.30;;;17.10;70.00;;;;;;4967900;28;20053;-77
2024/03/14 02:11:52;;;;;;;0.30;0.30;;;17.10;70.00;;;;;;4967254;28;20101;-76
2024/03/14 02:14:17;;;;;;;0.32;0.32;;;17.10;70.00;;;;;;4966998;28;20145;-78
2024/03/14 02:16:43;;;;;;;0.30;0.30;;;17.10;70.00;;;;;;4999267;28;20058;-78
2024/03/14 02:19:08;;;;;;;0.40;0.40;;;17.10;70.00;;;;;;4965639;28;20054;-78
2024/03/14 02:21:34;;;;;;;0.38;0.38;;;17.10;70.00;;;;;;4982201;28;20476;-77
2024/03/14 02:24:00;;;;;;;0.60;0.60;;;17.10;70.00;;;;;;4978682;28;20050;-77
2024/03/14 02:26:26;;;;;;;1.00;0.40;;;17.10;69.90;;;;;;4981087;28;20046;-77
2024/03/14 02:28:52;;;;;;;0.47;0.47;;;17.10;70.00;;;;;;5000723;28;20043;-77
2024/03/14 02:31:18;;;;;;;0.40;0.40;;;17.10;69.90;;;;;;4986249;28;20046;-78
2024/03/14 02:33:44;;;;;;;0.40;0.40;;;17.10;70.00;;;;;;4971334;28;20057;-77
2024/03/14 02:36:10;;;;;;;0.40;0.40;;;17.10;70.00;;;;;;4984704;28;20077;-77
2024/03/14 02:38:36;;;;;;;0.55;0.55;;;17.10;70.30;;;;;;4970069;28;20054;-77
2024/03/14 02:41:03;;;;;;;0.52;0.30;;;17.10;70.00;;;;;;4985404;28;20084;-77
2024/03/14 02:43:28;;;;;;;0.43;0.43;;;17.10;69.90;;;;;;4986405;28;20176;-77
2024/03/14 02:45:54;;;;;;;0.47;0.47;;;17.00;69.90;;;;;;4969366;28;20058;-77
2024/03/14 02:48:19;;;;;;;0.40;0.40;;;17.00;70.00;;;;;;4988201;28;20038;-77
2024/03/14 02:50:45;;;;;;;0.30;0.30;;;17.10;70.00;;;;;;5005302;28;20518;-78
2024/03/14 02:53:13;;;;;;;0.40;0.40;;;17.10;69.90;;;;;;4987461;28;20038;-78
2024/03/14 02:55:39;;;;;;;0.40;0.40;;;17.00;69.80;;;;;;4986316;28;20047;-78
2024/03/14 02:58:06;;;;;;;0.40;0.40;;;17.00;69.90;;;;;;4987410;28;20038;-78
2024/03/14 03:00:32;;;;;;;0.40;0.40;;;17.00;69.80;;;;;;4985976;28;20035;-78
2024/03/14 03:02:58;;;;;;;0.50;0.50;;;17.00;69.80;;;;;;4985959;28;20027;-78
2024/03/14 03:05:23;;;;;;;0.40;0.40;;;17.00;69.90;;;;;;5002312;28;20053;-78
2024/03/14 03:07:49;;;;;;;0.30;0.30;;;17.00;69.90;;;;;;5002365;28;20431;-78
2024/03/14 03:10:16;;;;;;;0.30;0.30;;;17.00;69.90;;;;;;4986379;28;20050;-78
2024/03/14 03:12:42;;;;;;;0.50;0.50;;;17.00;69.90;;;;;;4986071;28;20038;-78
2024/03/14 03:15:10;;;;;;;0.25;0.25;;;17.00;69.80;;;;;;4967840;28;20389;-77
2024/03/14 03:17:38;;;;;;;0.40;0.40;;;17.00;69.80;;;;;;4958210;28;20129;-77
2024/03/14 03:20:10;;;;;;;0.38;0.38;;;17.00;69.80;;;;;;4956165;28;20647;-78
2024/03/14 03:25:23;;;;;;;0.20;0.20;;;17.00;69.80;;;;;;4987983;28;20078;-78
2024/03/14 03:27:49;;;;;;;0.30;0.30;;;17.00;69.80;;;;;;4971618;28;20045;-78
2024/03/14 03:30:14;;;;;;;0.30;0.30;;;17.00;69.80;;;;;;4969313;28;20027;-77
2024/03/14 03:32:41;;;;;;;0.30;0.30;;;17.00;69.80;;;;;;5001991;28;20061;-78
2024/03/14 03:35:07;;;;;;;0.30;0.30;;;17.00;69.80;;;;;;4998996;28;20516;-78
2024/03/14 03:37:32;;;;;;;0.30;0.30;;;16.90;69.80;;;;;;4985336;28;20047;-78
2024/03/14 03:39:59;;;;;;;0.50;0.50;;;17.00;70.10;;;;;;4984555;28;20061;-77
2024/03/14 03:42:25;;;;;;;0.30;0.30;;;17.00;69.90;;;;;;4984492;28;20538;-78
2024/03/14 03:44:51;;;;;;;0.30;0.30;;;17.00;69.90;;;;;;4987967;28;20088;-78
2024/03/14 03:47:16;;;;;;;0.20;0.20;;;17.00;70.00;;;;;;4985430;28;20579;-77
2024/03/14 03:49:42;;;;;;;0.40;0.40;;;17.00;69.80;;;;;;4984166;28;20069;-77
2024/03/14 03:52:08;;;;;;;0.32;0.30;;;17.00;69.90;;;;;;5002270;28;20042;-77
2024/03/14 03:54:34;;;;;;;0.40;0.40;;;16.90;69.80;;;;;;4987019;28;20062;-78
2024/03/14 03:56:59;;;;;;;0.30;0.30;;;17.00;69.90;;;;;;4961761;28;20047;-78
2024/03/14 03:59:25;;;;;;;0.30;0.30;;;16.90;69.80;;;;;;4969091;28;20069;-78
2024/03/14 04:01:50;;;;;;;0.40;0.40;;;17.00;69.80;;;;;;4969516;28;20602;-77
2024/03/14 04:04:19;;;;;;;0.45;0.45;;;16.90;69.80;;;;;;4985414;28;20132;-77
2024/03/14 04:06:45;;;;;;;0.30;0.30;;;17.00;70.60;;;;;;4991286;28;20046;-78
2024/03/14 04:09:15;;;;;;;0.30;0.30;;;16.90;69.80;;;;;;4984258;28;20046;-77
2024/03/14 04:11:42;;;;;;;0.38;0.38;;;17.00;69.90;;;;;;4999697;28;20054;-78
2024/03/14 04:14:09;;;;;;;0.65;0.38;;;16.90;69.70;;;;;;4989091;28;20104;-78
2024/03/14 04:16:35;;;;;;;0.40;0.40;;;16.90;69.80;;;;;;4984330;28;20137;-78
2024/03/14 04:19:01;;;;;;;0.30;0.30;;;16.90;69.90;;;;;;4969224;28;20150;-78
2024/03/14 04:21:27;;;;;;;0.40;0.40;;;16.90;69.90;;;;;;4982910;28;20054;-78
2024/03/14 04:23:56;;;;;;;0.30;0.30;;;16.90;69.90;;;;;;4996918;28;20034;-78
2024/03/14 04:26:22;;;;;;;0.25;0.25;;;16.90;69.90;;;;;;4980800;28;20061;-78
2024/03/14 04:28:49;;;;;;;0.30;0.30;;;16.90;70.00;;;;;;4968491;28;20035;-77
2024/03/14 04:31:17;;;;;;;0.30;0.30;;;16.90;69.80;;;;;;4985738;28;20046;-78
2024/03/14 04:33:43;;;;;;;0.38;0.38;;;16.90;69.80;;;;;;4999699;28;20100;-78
2024/03/14 04:36:09;;;;;;;0.40;0.40;;;16.90;69.80;;;;;;4968528;28;20451;-78
2024/03/14 04:38:34;;;;;;;0.30;0.30;;;16.90;69.80;;;;;;4984139;28;20066;-78
2024/03/14 04:41:00;;;;;;;0.43;0.43;;;16.90;69.80;;;;;;4951696;28;20042;-78
2024/03/14 04:43:27;;;;;;;0.40;0.40;;;16.90;69.80;;;;;;4985742;28;20419;-78
2024/03/14 04:45:52;;;;;;;0.40;0.40;;;16.90;69.80;;;;;;4984405;28;20038;-77
2024/03/14 04:48:18;;;;;;;0.30;0.30;;;16.90;69.60;;;;;;4969971;28;20099;-78
2024/03/14 04:50:46;;;;;;;0.75;0.40;;;16.90;69.60;;;;;;4984751;28;20042;-77
2024/03/14 04:53:12;;;;;;;0.32;0.30;;;16.90;70.10;;;;;;4954109;28;20148;-77
2024/03/14 04:55:41;;;;;;;0.30;0.30;;;16.90;69.70;;;;;;4966622;28;20165;-78
2024/03/14 04:58:06;;;;;;;0.45;0.30;;;16.90;69.70;;;;;;4953539;28;20046;-78
2024/03/14 05:00:32;;;;;;;0.30;0.30;;;16.90;69.70;;;;;;4982810;28;20101;-78
2024/03/14 05:02:58;;;;;;;0.30;0.30;;;16.90;69.80;;;;;;4970657;28;20046;-79
2024/03/14 05:05:24;;;;;;;0.32;0.32;;;16.90;69.60;;;;;;4984201;28;20109;-79
2024/03/14 05:07:50;;;;;;;1.52;0.40;;;16.90;69.60;;;;;;4982271;28;20039;-78
2024/03/14 05:10:18;;;;;;;0.47;0.30;;;16.90;69.70;;;;;;4983046;28;20038;-77
2024/03/14 05:12:44;;;;;;;0.20;0.20;;;16.90;69.60;;;;;;4985383;28;20073;-78
2024/03/14 05:15:10;;;;;;;0.35;0.35;;;16.90;69.60;;;;;;4984529;28;20545;-78
2024/03/14 05:17:36;;;;;;;0.30;0.30;;;16.90;69.60;;;;;;4981972;28;20046;-77
2024/03/14 05:20:10;;;;;;;0.40;0.40;;;16.80;69.60;;;;;;4978555;28;20074;-77
2024/03/14 05:22:36;;;;;;;0.40;0.40;;;16.90;69.60;;;;;;4981905;28;20125;-77
2024/03/14 05:25:06;;;;;;;0.30;0.30;;;16.80;69.50;;;;;;4967907;28;20069;-77
2024/03/14 05:27:34;;;;;;;0.68;0.68;;;16.90;69.60;;;;;;5000826;28;20069;-78
2024/03/14 05:30:00;;;;;;;0.20;0.20;;;16.80;69.50;;;;;;4967777;28;20042;-77
2024/03/14 05:32:29;;;;;;;0.30;0.30;;;16.80;69.50;;;;;;4997491;28;20037;-78
2024/03/14 05:34:55;;;;;;;0.38;0.38;;;16.80;69.40;;;;;;4985008;28;20058;-77
2024/03/14 05:37:26;;;;;;;0.30;0.20;;;16.80;69.50;;;;;;4983703;28;20500;-78
2024/03/14 05:39:52;;;;;;;0.55;0.45;;;16.80;69.50;;;;;;4985042;28;20046;-77
2024/03/14 05:42:18;;;;;;;0.30;0.30;;;16.80;69.40;;;;;;4984641;28;20054;-78
2024/03/14 05:44:47;;;;;;;0.30;0.30;;;16.80;69.50;;;;;;4981109;28;20472;-78
2024/03/14 05:47:13;;;;;;;0.20;0.20;;;16.80;70.20;;;;;;4986223;28;20042;-76
2024/03/14 05:49:39;;;;;;;0.40;0.30;;;16.80;69.50;;;;;;4970019;28;20069;-76
2024/03/14 05:52:04;;;;;;;0.30;0.30;;;16.80;69.40;;;;;;4984117;28;20066;-77
2024/03/14 05:54:31;;;;;;;0.30;0.30;;;16.80;69.40;;;;;;4984430;28;20046;-77
2024/03/14 05:56:57;;;;;;;0.20;0.20;;;16.80;69.40;;;;;;4971046;28;20511;-77
2024/03/14 05:59:22;;;;;;;0.30;0.30;;;16.80;69.30;;;;;;4985084;28;20042;-78
2024/03/14 06:01:48;;;;;;;0.30;0.30;;;16.80;69.40;;;;;;4982814;28;20030;-78
2024/03/14 06:04:14;;;;;;;0.40;0.40;;;16.80;69.50;;;;;;4988158;28;20520;-78
2024/03/14 06:06:39;;;;;;;0.40;0.40;;;16.80;69.40;;;;;;4988034;28;20053;-79
2024/03/14 06:09:05;;;;;;;0.30;0.30;;;16.80;69.40;;;;;;5005057;28;20071;-78
2024/03/14 06:11:33;;;;;;;0.50;0.50;;;16.80;69.50;;;;;;4990565;28;20558;-79
2024/03/14 06:13:59;;;;;;;0.30;0.30;;;16.80;70.20;;;;;;5005315;28;20130;-78
2024/03/14 06:16:26;;;;;;;0.28;0.28;;;16.70;70.60;;;;;;4988020;28;20118;-78
2024/03/14 06:18:51;;;;;;;0.40;0.40;;;16.80;70.90;;;;;;4972145;28;20500;-78
2024/03/14 06:21:17;;;;;;;0.30;0.30;;;16.80;70.80;;;;;;5002657;28;20045;-78
2024/03/14 06:23:42;;;;;;;1.38;0.40;;;16.80;70.70;;;;;;4622902;28;9999743;-77
2024/03/14 06:26:08;;;;;;;0.30;0.30;;;16.80;70.70;;;;;;4969267;28;20125;-77
2024/03/14 06:28:35;;;;;;;0.30;0.30;;;16.80;71.00;;;;;;4986459;28;20046;-77
2024/03/14 06:31:01;;;;;;;0.30;0.25;;;16.80;70.90;;;;;;4984294;28;20085;-77
2024/03/14 06:33:27;;;;;;;0.40;0.40;;;16.80;71.10;;;;;;4982043;28;20547;-77
2024/03/14 06:35:55;;;;;;;0.35;0.30;;;16.80;71.60;;;;;;4982504;28;20150;-77
2024/03/14 06:38:24;;;;;;;0.28;0.28;;;16.80;71.60;;;;;;4968675;28;20133;-77
2024/03/14 06:40:52;;;;;;;0.40;0.40;;;16.80;71.80;;;;;;4980896;28;20073;-77
2024/03/14 06:43:18;;;;;;;0.30;0.30;;;16.80;71.70;;;;;;4968864;28;20443;-77
2024/03/14 06:45:43;;;;;;;0.40;0.40;;;16.80;71.70;;;;;;4967057;28;20053;-77
2024/03/14 06:48:09;;;;;;;0.20;0.20;;;16.80;71.70;;;;;;4967021;28;20050;-77
2024/03/14 06:50:34;;;;;;;0.28;0.28;;;16.80;71.70;;;;;;4968771;28;20073;-78
2024/03/14 06:53:00;;;;;;;0.20;0.20;;;16.80;71.70;;;;;;4982117;28;20503;-77
2024/03/14 06:55:26;;;;;;;0.40;0.40;;;16.80;71.70;;;;;;4970217;28;20050;-78
2024/03/14 06:57:53;;;;;;;1.25;0.30;;;16.80;71.80;;;;;;4951737;28;20053;-78
2024/03/14 07:00:22;;;;;;;0.30;0.30;;;16.80;71.60;;;;;;4982489;28;20419;-77
2024/03/14 07:02:49;;;;;;;0.30;0.30;;;16.80;71.20;;;;;;4985034;28;20520;-77
2024/03/14 07:05:15;;;;;;;1.33;0.40;;;16.80;71.50;;;;;;4984420;28;20057;-77
2024/03/14 07:07:46;;;;;;;0.30;0.30;;;16.90;71.60;;;;;;4984872;28;20431;-78
2024/03/14 07:10:16;;;;;;;0.45;0.45;;;16.90;71.70;;;;;;4984609;28;20046;-77
2024/03/14 07:12:45;;;;;;;0.40;0.40;;;16.80;71.40;;;;;;4978547;28;20141;-77
2024/03/14 07:15:12;;;;;;;0.40;0.40;;;16.90;71.60;;;;;;4985533;28;20538;-77
2024/03/14 07:17:38;;;;;;;0.38;0.38;;;16.90;71.50;;;;;;4988900;28;20042;-77
2024/03/14 07:20:09;;;;;;;0.43;0.43;;;16.90;71.50;;;;;;5000370;28;20042;-77
2024/03/14 07:22:37;;;;;;;0.47;0.35;;;16.80;71.30;;;;;;4987885;28;20042;-78
2024/03/14 07:25:06;;;;;;;0.50;0.50;;;16.80;71.30;;;;;;4988967;28;20042;-77
2024/03/14 07:27:33;;;;;;;0.40;0.40;;;16.80;71.10;;;;;;4986863;28;20043;-78
2024/03/14 07:30:00;;;;;;;0.40;0.40;;;16.80;71.20;;;;;;4991162;28;20483;-78
2024/03/14 07:32:27;;;;;;;0.32;0.32;;;16.80;71.10;;;;;;4988758;28;20042;-77
2024/03/14 07:34:55;;;;;;;0.70;0.47;;;16.80;71.20;;;;;;4987489;28;20177;-77
2024/03/14 07:37:23;;;;;;;0.40;0.40;;;16.80;71.20;;;;;;4989021;28;20042;-78
2024/03/14 07:39:50;;;;;;;0.30;0.30;;;16.80;71.20;;;;;;4988379;28;20050;-77
2024/03/14 07:42:17;;;;;;;0.38;0.38;;;16.80;71.20;;;;;;4987873;28;20573;-77
2024/03/14 07:44:45;;;;;;;1.63;0.40;;;16.80;71.20;;;;;;4986810;28;20038;-77
2024/03/14 07:47:19;;;;;;;0.20;0.20;;;16.80;72.00;;;;;;4988420;28;20061;-77
2024/03/14 07:49:48;;;;;;;1.33;0.30;;;16.80;71.10;;;;;;4985359;28;20100;-78
2024/03/14 07:52:15;;;;;;;0.40;0.40;;;16.80;71.20;;;;;;4988457;28;20069;-77
2024/03/14 07:54:44;;;;;;;0.63;0.20;;;16.80;71.90;;;;;;4988736;28;20088;-78
2024/03/14 07:57:12;;;;;;;0.40;0.40;;;16.80;71.10;;;;;;4988366;28;20086;-77
2024/03/14 07:59:38;;;;;;;0.40;0.40;;;16.80;71.10;;;;;;4989509;28;20460;-78
2024/03/14 08:02:07;;;;;;;0.30;0.30;;;16.80;71.10;;;;;;4988658;28;20038;-78
2024/03/14 08:04:37;;;;;;;0.43;0.40;;;16.80;71.00;;;;;;4987423;28;20042;-78
2024/03/14 08:07:10;;;;;;;0.82;0.30;;;16.80;71.10;;;;;;4984390;28;20042;-77
2024/03/14 08:09:37;;;;;;;0.60;0.30;;;16.80;71.00;;;;;;4985111;28;20133;-77
2024/03/14 08:12:03;;;;;;;0.50;0.40;;;16.80;71.00;;;;;;4988297;28;20050;-77
2024/03/14 08:14:29;;;;;;;0.45;0.30;;;16.80;71.10;;;;;;4988018;28;20097;-77
2024/03/14 08:16:55;;;;;;;0.40;0.40;;;16.80;71.10;;;;;;4971125;28;20634;-78
2024/03/14 08:19:21;;;;;;;0.60;0.57;;;16.80;71.00;;;;;;4984900;28;20050;-77
2024/03/14 08:21:47;;;;;;;0.30;0.30;;;16.80;71.00;;;;;;4968242;28;20049;-77
2024/03/14 08:24:16;;;;;;;0.30;0.30;;;16.80;71.00;;;;;;4986284;28;20505;-77
2024/03/14 08:26:43;;;;;;;0.30;0.30;;;16.80;71.00;;;;;;4987219;28;20043;-78
2024/03/14 08:29:10;;;;;;;1.02;0.32;;;16.80;71.00;;;;;;4986153;28;20430;-77
2024/03/14 08:31:36;;;;;;;0.20;0.20;;;16.90;71.10;;;;;;4988419;28;20038;-78
2024/03/14 08:34:05;;;;;;;0.30;0.30;;;16.80;70.90;;;;;;4989360;28;20045;-77
2024/03/14 08:36:31;;;;;;;0.30;0.30;;;16.90;71.00;;;;;;4988185;28;20050;-77
2024/03/14 08:38:56;;;;;;;0.40;0.40;;;16.80;70.90;;;;;;4988958;28;20144;-78
2024/03/14 08:41:22;;;;;;;0.30;0.30;;;16.80;70.80;;;;;;4983469;28;20038;-77
2024/03/14 08:43:48;;;;;;;0.50;0.50;;;16.90;70.90;;;;;;4987340;28;20042;-77
2024/03/14 08:46:15;;;;;;;0.32;0.30;;;16.80;70.80;;;;;;4987242;28;20052;-77
2024/03/14 08:48:41;;;;;;;0.32;0.32;;;16.90;70.80;;;;;;5001531;28;20292;-77
2024/03/14 08:51:07;;;;;;;0.45;0.45;;;16.90;70.70;;;;;;4990735;28;20042;-77
2024/03/14 08:56:19;;;;;;;1.65;0.50;;;16.90;70.80;;;;;;4988459;28;20138;-77
2024/03/14 08:58:47;;;;;;;0.30;0.30;;;16.90;70.70;;;;;;4988741;28;20035;-77
2024/03/14 09:01:12;;;;;;;0.20;0.20;;;16.90;70.70;;;;;;4989477;28;20045;-77
2024/03/14 09:03:38;;;;;;;0.38;0.38;;;16.90;70.70;;;;;;4990230;28;20030;-77
2024/03/14 09:06:05;;;;;;;0.40;0.40;;;16.90;70.70;;;;;;4988704;28;20022;-77
2024/03/14 09:08:30;;;;;;;0.30;0.30;;;16.90;70.70;;;;;;4988563;28;20738;-77
2024/03/14 09:10:56;;;;;;;0.30;0.30;;;16.90;70.70;;;;;;4971032;28;20027;-77
2024/03/14 09:13:22;;;;;;;0.38;0.38;;;16.90;70.60;;;;;;4987442;28;20128;-77
2024/03/14 09:15:50;;;;;;;0.55;0.30;;;16.90;70.60;;;;;;4988453;28;20496;-77
2024/03/14 09:18:17;;;;;;;0.20;0.20;;;16.90;70.60;;;;;;4979208;28;20371;-77
2024/03/14 09:20:47;;;;;;;0.40;0.40;;;16.90;70.50;;;;;;4988352;28;20018;-77
2024/03/14 09:23:19;;;;;;;0.25;0.25;;;17.00;70.60;;;;;;4989855;28;20484;-77
2024/03/14 09:25:44;;;;;;;0.30;0.30;;;17.00;70.60;;;;;;4971062;28;20101;-77
2024/03/14 09:28:11;;;;;;;0.30;0.20;;;17.00;70.60;;;;;;4985694;28;20114;-77
2024/03/14 09:30:37;;;;;;;0.30;0.30;;;17.00;70.60;;;;;;4990409;28;20575;-77
2024/03/14 09:33:02;;;;;;;0.30;0.30;;;17.00;70.80;;;;;;4988695;28;20570;-77
2024/03/14 09:35:28;;;;;;;0.47;0.47;;;17.00;70.50;;;;;;4989592;28;20035;-77
2024/03/14 09:37:54;;;;;;;0.40;0.40;;;17.00;70.50;;;;;;4983142;28;20500;-77
2024/03/14 09:40:21;;;;;;;0.20;0.20;;;17.00;70.50;;;;;;4983614;28;20500;-77
2024/03/14 09:42:55;;;;;;;0.35;0.35;;;17.00;70.50;;;;;;4989156;28;20049;-77
2024/03/14 09:45:22;;;;;;;0.20;0.20;;;17.00;70.50;;;;;;4985786;28;20046;-77
2024/03/14 09:47:48;;;;;;;2.05;0.50;;;17.00;70.60;;;;;;4988291;28;20032;-77
2024/03/14 09:50:18;;;;;;;0.65;0.43;;;17.00;70.60;;;;;;4986950;28;20475;-78
2024/03/14 09:52:44;;;;;;;0.35;0.35;;;17.00;70.60;;;;;;4971419;28;20026;-77
2024/03/14 09:55:13;;;;;;;0.25;0.25;;;17.00;70.60;;;;;;4970136;28;20523;-78
2024/03/14 09:57:40;;;;;;;0.30;0.30;;;17.00;70.50;;;;;;4988333;28;20508;-78
2024/03/14 10:00:11;;;;;;;0.40;0.20;;;17.00;70.50;;;;;;4971017;28;20489;-77
2024/03/14 10:02:36;;;;;;;0.22;0.22;;;17.00;70.50;;;;;;4971571;28;20492;-78
2024/03/14 10:05:02;;;;;;;0.43;0.43;;;17.00;70.50;;;;;;4987376;28;20029;-77
2024/03/14 10:07:29;;;;;;;1.15;0.50;;;17.00;70.50;;;;;;4987930;28;20091;-77
2024/03/14 10:09:55;;;;;;;0.80;0.30;;;17.00;70.50;;;;;;4988528;28;20034;-77
2024/03/14 10:12:21;;;;;;;0.40;0.40;;;17.00;70.40;;;;;;4988606;28;20034;-78
2024/03/14 10:15:12;;;;;;;0.30;0.30;;;17.10;70.50;;;;;;4987662;28;20034;-77
2024/03/14 10:17:40;;;;;;;0.32;0.32;;;17.10;70.40;;;;;;4986042;28;20022;-77
2024/03/14 10:20:14;;;;;;;0.40;0.40;;;17.10;70.30;;;;;;4986828;28;20129;-78
2024/03/14 10:22:43;;;;;;;0.47;0.43;;;17.10;70.40;;;;;;4988574;28;20109;-78
2024/03/14 10:25:09;;;;;;;0.20;0.20;;;17.10;70.30;;;;;;4987885;28;20029;-77
2024/03/14 10:27:57;;;;;;;0.30;0.28;;;17.10;70.30;;;;;;4985488;28;20030;-77
2024/03/14 10:30:23;;;;;;;0.63;0.40;;;17.10;70.20;;;;;;4985882;28;20042;-77
2024/03/14 10:32:49;;;;;;;0.75;0.40;;;17.10;70.20;;;;;;4987259;28;20030;-78
2024/03/14 10:35:14;;;;;;;0.40;0.40;;;17.10;70.30;;;;;;4987676;28;20038;-78
2024/03/14 10:37:43;;;;;;;0.95;0.30;;;17.10;70.30;;;;;;4988394;28;20045;-77
2024/03/14 10:40:13;;;;;;;0.40;0.40;;;17.20;70.10;;;;;;4988310;28;20383;-77
2024/03/14 10:42:39;;;;;;;0.30;0.30;;;17.20;69.90;;;;;;4986030;28;20121;-77
2024/03/14 10:45:05;;;;;;;0.40;0.32;;;17.20;69.80;;;;;;4989903;28;20109;-77
2024/03/14 10:47:32;;;;;;;0.30;0.30;;;17.30;69.50;;;;;;4988486;28;20023;-77
2024/03/14 10:49:58;;;;;;;0.30;0.30;;;17.30;69.40;;;;;;4986071;28;20105;-77
2024/03/14 10:52:23;;;;;;;0.40;0.40;;;17.30;69.30;;;;;;4974580;28;20098;-77
2024/03/14 10:54:49;;;;;;;0.40;0.40;;;17.40;69.00;;;;;;4991922;28;20026;-77
2024/03/14 10:57:18;;;;;;;0.22;0.20;;;17.40;68.80;;;;;;4985276;28;20026;-77
2024/03/14 10:59:44;;;;;;;0.20;0.20;;;17.50;68.90;;;;;;4992019;28;20053;-77
2024/03/14 11:02:14;;;;;;;0.30;0.30;;;17.60;68.70;;;;;;4991913;28;20029;-77
2024/03/14 11:04:40;;;;;;;0.30;0.30;;;17.60;68.80;;;;;;4992170;28;20477;-77
2024/03/14 11:07:08;;;;;;;0.28;0.20;;;17.60;68.70;;;;;;4991602;28;20025;-77
2024/03/14 11:09:38;;;;;;;0.47;0.45;;;17.60;68.60;;;;;;4990327;28;20030;-77
2024/03/14 11:12:04;;;;;;;0.32;0.32;;;17.60;68.50;;;;;;4993666;28;20031;-77
2024/03/14 11:14:43;;;;;;;0.20;0.20;;;17.60;68.90;;;;;;4973803;28;20038;-77
2024/03/14 11:17:09;;;;;;;0.30;0.30;;;17.60;68.50;;;;;;4990662;28;20038;-77
2024/03/14 11:19:35;;;;;;;0.20;0.20;;;17.70;68.40;;;;;;4991844;28;20015;-77
2024/03/14 11:22:01;;;;;;;0.40;0.40;;;17.70;68.30;;;;;;4992409;28;20038;-77
2024/03/14 11:24:30;;;;;;;0.32;0.32;;;17.70;68.30;;;;;;4973191;28;20125;-77
2024/03/14 11:26:58;;;;;;;0.32;0.32;;;17.70;68.20;;;;;;4974270;28;20088;-77
2024/03/14 11:29:23;;;;;;;0.30;0.30;;;17.80;68.20;;;;;;5005425;28;20495;-77
2024/03/14 11:32:09;;;;;;;0.47;0.35;;;17.70;68.10;;;;;;4990548;28;20034;-77
2024/03/14 11:34:35;;;;;;;0.40;0.40;;;17.80;68.10;;;;;;4989836;28;20029;-77
2024/03/14 11:37:02;;;;;;;0.30;0.28;;;17.80;68.20;;;;;;4989326;28;20026;-77
2024/03/14 11:39:27;;;;;;;0.82;0.40;;;17.80;68.10;;;;;;4991219;28;20495;-77
2024/03/14 11:42:10;;;;;;;0.30;0.30;;;17.80;68.20;;;;;;4990813;28;20547;-78
2024/03/14 11:44:38;;;;;;;0.30;0.30;;;17.80;68.20;;;;;;4991150;28;20081;-77
2024/03/14 11:47:04;;;;;;;0.47;0.40;;;17.80;68.20;;;;;;4991051;28;20037;-77
2024/03/14 11:49:31;;;;;;;0.20;0.20;;;17.80;68.30;;;;;;4990094;28;20026;-77
2024/03/14 11:51:59;;;;;;;0.30;0.30;;;17.80;68.30;;;;;;4972300;28;20022;-78
2024/03/14 11:54:24;;;;;;;0.30;0.30;;;17.80;68.40;;;;;;4988932;28;20029;-78
2024/03/14 11:56:53;;;;;;;0.20;0.20;;;17.80;68.30;;;;;;4989908;28;20030;-77
2024/03/14 11:59:22;;;;;;;0.30;0.30;;;17.80;68.30;;;;;;4987115;28;20019;-77
2024/03/14 12:01:50;;;;;;;0.22;0.22;;;17.80;68.30;;;;;;4991126;28;20022;-77
2024/03/14 12:04:17;;;;;;;0.30;0.30;;;17.80;69.00;;;;;;4989854;28;20110;-77
2024/03/14 12:06:49;;;;;;;0.32;0.32;;;17.80;68.50;;;;;;4989515;28;20030;-77
2024/03/14 12:09:21;;;;;;;0.30;0.30;;;17.80;68.30;;;;;;4991829;28;20027;-78
2024/03/14 12:11:49;;;;;;;0.20;0.20;;;17.80;68.30;;;;;;4991446;28;20014;-77
2024/03/14 12:14:16;;;;;;;0.25;0.25;;;17.90;68.30;;;;;;4988323;28;20030;-77
2024/03/14 12:16:46;;;;;;;0.22;0.22;;;17.80;68.20;;;;;;4989105;28;20026;-77
2024/03/14 12:19:15;;;;;;;0.38;0.38;;;17.80;68.20;;;;;;4989482;28;20022;-78
2024/03/14 12:22:02;;;;;;;0.30;0.30;;;17.90;68.30;;;;;;4989636;28;20022;-77
2024/03/14 12:24:27;;;;;;;0.30;0.30;;;17.90;68.20;;;;;;4986906;28;20104;-77
2024/03/14 12:26:53;;;;;;;0.50;0.50;;;17.90;68.00;;;;;;4987008;28;20022;-78
2024/03/14 12:29:20;;;;;;;0.30;0.30;;;17.90;68.00;;;;;;4980751;28;20021;-77
2024/03/14 12:31:47;;;;;;;0.40;0.40;;;17.90;68.00;;;;;;4988225;28;20385;-77
2024/03/14 12:34:13;;;;;;;0.30;0.30;;;17.90;68.10;;;;;;4973233;28;20061;-77
2024/03/14 12:36:39;;;;;;;0.30;0.30;;;18.00;68.10;;;;;;4989328;28;20459;-77
2024/03/14 12:39:04;;;;;;;0.40;0.30;;;18.00;68.00;;;;;;4989768;28;20529;-77
2024/03/14 12:41:31;;;;;;;0.20;0.20;;;17.90;68.00;;;;;;5005893;28;20019;-77
2024/03/14 12:43:57;;;;;;;0.35;0.30;;;18.00;68.10;;;;;;4986146;28;20102;-77
2024/03/14 12:46:23;;;;;;;0.30;0.20;;;18.00;67.90;;;;;;4987234;28;20031;-77
2024/03/14 12:48:48;;;;;;;0.22;0.22;;;18.00;68.10;;;;;;4972807;28;20077;-78
2024/03/14 12:51:18;;;;;;;0.20;0.20;;;18.00;68.00;;;;;;4989280;28;20030;-78
2024/03/14 12:53:56;;;;;;;0.30;0.30;;;18.00;68.00;;;;;;4989524;28;20045;-78